Dauntless Aviation
Airports Europe United Kingdom
EGMC
SEN

Southend Airport

Southend, UNITED KINGDOM

Airport Info
Suggest Updated Information for this Airport

Location

Latitude / Longitude: 51°34'17"N / 0°41'44"E
  51°34.284'N / 0°41.736'E
  51.5714 / 0.6956

Runway Information

Runway 06 /24

Dimensions: 5266 x 121 ft.
Surface: ASP
 
Runway 06
Runway 24
Latitude: 51.568136 51.574894
Longitude: 0.688233 0.703253
Elevation: 49 ft. 49 ft.
Runway true heading: 51.6 231.6
 

Instrument Procedures

  Aerodrome Chart
  Aircraft Parking/Docking Chart
  Control Zone and Control Area Chart

STARs (Standard Terminal Arrivals)

  RNAV5 DME/DME or GNSS) STAR - Instrument Rwy 05/23 KATHY 1S NEVIL 1S SAM 1S SOVAT 1S
  Standard Instrument Arrival Coding Tables - Rwy 05/23 SUMUM 1S XAMAN 1S SOVAT 1S
  Standard Instrument Arrival Coding Tables - Rwy 05/23 KATHY 1S NEVIL 1S SAM 1S
  RNAV5 (VOR/DME/ DME/DME or GNSS) STAR - Instrument Rwy 05/23 SUMUM 1S XAMAN 1S
  STAR - Instrument Rwy 05/23 SPEAR 2L 1M 2H
  STAR - Instrument Rwy 05/23 SPEAR 1A

IAPs (Instrument Approach Procedures)

  ILS/DME/NDB (L) Rwy 05 (CAT A/B/C)
  ILS/DME/NDB (L) Rwy 05 (Aircraft CAT D)
  LOC/DME/NDB (L) Rwy 05 (Aircraft CAT A/B/C)
  LOC/DME/NDB (L) Rwy 05 (Aircraft CAT D)
  SRA RTR 2NM Rwy 05 (Aircraft CAT A/B/C)
  ILS/DME/NDB (L) Rwy 23
  LOC/DME/NDB (L) Rwy 23
  SRA RTR 2NM Rwy 23 (CAT A/B/C)
  Aerodrome Information (Textual)
  RNAV Hold Coding Tables GODLU/ OKVAP/ GEGMU
  ATC Surveillance Minimum Altitude Chart
Satellite photo at:
Airport distance calculator
From:
Weather Reports

METAR

EGMC

EGMC 230650Z 24009KT 9999 BKN018 15/12 Q1010
EGLC
24.5nm SW
EGLC 230650Z AUTO 23009KT 9999 BKN015 OVC049 15/12 Q1011
EGSS
25.8nm NW
EGSS 230650Z AUTO 24009KT 9999 OVC011 14/13 Q1010
EGKB
29.7nm SW
EGKB 230650Z 20009KT 9999 FEW015 12/11 Q1011
EGUW
34.2nm N
EGUW 230650Z 23008KT 9999 BKN016 14/12 Q1010 NOSIG RMK WHT WHT
EGMD
38.2nm SE
EGMD 230650Z AUTO 25010KT 9999 NCD 15/13 Q1012

TAF

EGMC
TAF EGMC 230503Z 2306/2315 24010KT 9999 SCT030 TEMPO 2306/2308 BKN010 PROB30 TEMPO 2312/2315 7000 SHRA
EGLC
24.5nm SW
TAF EGLC 230503Z 2306/2315 24010KT 9999 SCT030 TEMPO 2306/2308 BKN008 PROB30 TEMPO 2312/2315 7000 SHRA
EGSS
25.8nm NW
TAF EGSS 230501Z 2306/2412 19007KT 9999 BKN010 BECMG 2306/2309 FEW017 PROB30 2306/2307 6000 BKN007 TEMPO 2318/2402 5000 RA -RADZ BECMG 2320/2323 BKN012 TEMPO 2323/2408 3000 BR BKN004 PROB40 2402/2408 +SHRA BKN001 BKN015CB TEMPO 2408/2412 3000 +RA +SHRA BKN004 BKN015CB PROB30 TEMPO 2408/2412 18022G33KT 1400 SQ +SHGR BECMG 2409/2412 SCT015
EGKB
29.7nm SW
TAF EGKB 230554Z 2306/2315 24010KT 9999 SCT030 PROB30 TEMPO 2312/2315 7000 SHRA
EGUW
34.2nm N
TAF EGUW 230620Z 2306/2315 23009KT 9999 BKN012 BECMG 2308/2311 FEW040
EGMD
38.2nm SE
TAF EGMD 230503Z 2306/2315 21012KT 9999 FEW035 PROB30 TEMPO 2306/2308 8000 -SHRA BKN008 PROB30 TEMPO 2311/2315 7000 SHRA
Safelog

 

Dauntless Aviation

© 2007-2019 Dauntless Aviation, all rights reserved
Information provided via PilotNav comes from a variety of official and unofficial data sources. As errors are possible, do not use PilotNav for primary flight planning purposes. Verify any information that you receive via PilotNav with current and canonical charts and other official documents. The material in this database is subject to database copyrights held by Dauntless Aviation and may not be copied without the express permission of Dauntless Aviation - licenses for use of part of all of this data are available for purchase; enquire via the Dauntless Aviation helpdesk. A number of mechanisms and markers exist in the database to protect against and identify infringement / copyright. Automated queries against this website are stictly prohibited, and all activity is logged and analyzed.